Strona główna
METAR-TAF:

METAR-TAF

Lotnisko :

Port lotniczy Glasgow-Prestwick

Glasgow-Prestwick, Szkocja

Szerokość geograficzna: 55-30N, Długość geograficzna: 004-35W, wysokość: 20 m

Aktualna obserwacja pogody

Raport powstał 1 godzina i 1 minut temu, godzina 04:50 UTC
Wiatr 4 kt od wschodnio-południowy wschód
Temperatura 9°C
Wilgotność 93%
Ciśnienie 1035 hPa
Widzialność 10 km lub więcej
Brak chmur poniżej 1500 m i brak chmur cumulonimbus

METAR: EGPK 280450Z 12004KT CAVOK 09/08 Q1035

czas: 06:51 (05:51 UTC)

Prognoza

Raport powstał 50 minut temu, godzina 05:01 UTC
Prognoza ważna od 28 godzina 06 UTC do 29 godzina 06 UTC
Wiatr 4 kt od południowo-południowy wschód
Widzialność 10 km lub więcej
Mało chmury na wysokości 4500 ft
Stopniowe zmiany
od 28 godzina 09 UTC do 28 godzina 12 UTC
Wiatr 10 kt od zachód
Prawdopodobieństwo 30%
od 29 godzina 00 UTC do 29 godzina 06 UTC
Widzialność: 8000 m

TAF: EGPK 280501Z 2806/2906 15004KT 9999 FEW045 BECMG 2809/2812 26010KT PROB30 2900/2906 8000

Obserwacja i prognoza pogody dla ponad 4000 lotnisk (raport METAR i TAF).

Dostępne stacje oznaczono żółtymi i czerwonymi punktami na mapie.

Najedź kursorem aby zobaczyć nazwę stacji.

Kliknij aby zobaczyć obserwacje i prognozy pogody.

Aby zmienić mapę: kliknij na zielony przycisk z czarnym krzyżykiem, aby powiększyć; na zielony przycisk z myślnikiem, aby pomniejszyć; na zielone strzałki, aby przejść do map sąsiednich.


METAR-TAF: